sensor_id;sensor_type;location;lat;lon;timestamp;temperature;humidity
20231;DHT22;10274;49.022;9.338;2023-06-04T00:00:59;17.00;1.00
20231;DHT22;10274;49.022;9.338;2023-06-04T00:03:25;17.00;1.00
20231;DHT22;10274;49.022;9.338;2023-06-04T00:05:52;17.00;1.00
20231;DHT22;10274;49.022;9.338;2023-06-04T00:08:19;17.00;1.00
20231;DHT22;10274;49.022;9.338;2023-06-04T00:10:45;17.00;1.00
20231;DHT22;10274;49.022;9.338;2023-06-04T00:13:12;16.80;1.00
20231;DHT22;10274;49.022;9.338;2023-06-04T00:15:41;16.80;1.00
20231;DHT22;10274;49.022;9.338;2023-06-04T00:18:08;16.90;1.00
20231;DHT22;10274;49.022;9.338;2023-06-04T00:20:36;16.80;1.00
20231;DHT22;10274;49.022;9.338;2023-06-04T00:23:03;16.60;1.00
20231;DHT22;10274;49.022;9.338;2023-06-04T00:25:31;16.50;1.00
20231;DHT22;10274;49.022;9.338;2023-06-04T00:27:57;16.20;1.00
20231;DHT22;10274;49.022;9.338;2023-06-04T00:30:24;15.80;1.00
20231;DHT22;10274;49.022;9.338;2023-06-04T00:32:52;15.90;1.00
20231;DHT22;10274;49.022;9.338;2023-06-04T00:35:19;15.70;1.00
20231;DHT22;10274;49.022;9.338;2023-06-04T00:37:46;15.50;1.00
20231;DHT22;10274;49.022;9.338;2023-06-04T00:40:13;15.40;1.00
20231;DHT22;10274;49.022;9.338;2023-06-04T00:42:40;15.60;1.00
20231;DHT22;10274;49.022;9.338;2023-06-04T00:45:08;14.80;1.00
20231;DHT22;10274;49.022;9.338;2023-06-04T00:47:35;14.60;91.30
20231;DHT22;10274;49.022;9.338;2023-06-04T00:50:05;14.30;99.90
20231;DHT22;10274;49.022;9.338;2023-06-04T00:52:32;14.40;99.90
20231;DHT22;10274;49.022;9.338;2023-06-04T00:54:59;14.60;99.90
20231;DHT22;10274;49.022;9.338;2023-06-04T00:57:26;14.50;99.90
20231;DHT22;10274;49.022;9.338;2023-06-04T00:59:52;14.60;99.90
20231;DHT22;10274;49.022;9.338;2023-06-04T01:02:21;14.20;1.00
20231;DHT22;10274;49.022;9.338;2023-06-04T01:04:54;13.90;99.90
20231;DHT22;10274;49.022;9.338;2023-06-04T01:07:27;13.60;99.90
20231;DHT22;10274;49.022;9.338;2023-06-04T01:09:54;13.60;99.90
20231;DHT22;10274;49.022;9.338;2023-06-04T01:12:21;13.70;1.00
20231;DHT22;10274;49.022;9.338;2023-06-04T01:14:47;13.80;99.90
20231;DHT22;10274;49.022;9.338;2023-06-04T01:17:19;13.10;1.00
20231;DHT22;10274;49.022;9.338;2023-06-04T01:20:07;12.80;62.60
20231;DHT22;10274;49.022;9.338;2023-06-04T01:22:43;13.00;1.00
20231;DHT22;10274;49.022;9.338;2023-06-04T01:25:13;13.10;99.90
20231;DHT22;10274;49.022;9.338;2023-06-04T01:27:48;12.80;99.90
20231;DHT22;10274;49.022;9.338;2023-06-04T01:30:18;12.80;1.00
20231;DHT22;10274;49.022;9.338;2023-06-04T01:32:46;12.90;1.00
20231;DHT22;10274;49.022;9.338;2023-06-04T01:35:13;12.70;1.00
20231;DHT22;10274;49.022;9.338;2023-06-04T01:37:41;12.50;1.00
20231;DHT22;10274;49.022;9.338;2023-06-04T01:40:08;12.50;1.00
20231;DHT22;10274;49.022;9.338;2023-06-04T01:42:35;12.50;99.90
20231;DHT22;10274;49.022;9.338;2023-06-04T01:45:03;12.50;1.00
20231;DHT22;10274;49.022;9.338;2023-06-04T01:47:29;12.40;1.00
20231;DHT22;10274;49.022;9.338;2023-06-04T01:49:56;12.40;1.00
20231;DHT22;10274;49.022;9.338;2023-06-04T01:52:23;12.30;1.00
20231;DHT22;10274;49.022;9.338;2023-06-04T01:54:51;11.90;1.00
20231;DHT22;10274;49.022;9.338;2023-06-04T01:57:18;11.90;1.00
20231;DHT22;10274;49.022;9.338;2023-06-04T01:59:45;11.60;99.90
20231;DHT22;10274;49.022;9.338;2023-06-04T02:02:13;11.70;65.00
20231;DHT22;10274;49.022;9.338;2023-06-04T02:04:40;11.90;99.90
20231;DHT22;10274;49.022;9.338;2023-06-04T02:07:07;11.90;1.00
20231;DHT22;10274;49.022;9.338;2023-06-04T02:09:33;12.00;99.90
20231;DHT22;10274;49.022;9.338;2023-06-04T02:12:02;11.60;1.00
20231;DHT22;10274;49.022;9.338;2023-06-04T02:14:28;11.70;1.00
20231;DHT22;10274;49.022;9.338;2023-06-04T02:16:55;11.80;1.00
20231;DHT22;10274;49.022;9.338;2023-06-04T02:19:23;12.00;99.90
20231;DHT22;10274;49.022;9.338;2023-06-04T02:21:51;11.80;99.90
20231;DHT22;10274;49.022;9.338;2023-06-04T02:24:18;11.60;1.00
20231;DHT22;10274;49.022;9.338;2023-06-04T02:26:45;11.40;99.90
20231;DHT22;10274;49.022;9.338;2023-06-04T02:29:13;11.00;99.90
20231;DHT22;10274;49.022;9.338;2023-06-04T02:31:39;11.20;68.60
20231;DHT22;10274;49.022;9.338;2023-06-04T02:34:06;11.30;1.00
20231;DHT22;10274;49.022;9.338;2023-06-04T02:36:33;11.10;99.90
20231;DHT22;10274;49.022;9.338;2023-06-04T02:39:00;11.00;99.90
20231;DHT22;10274;49.022;9.338;2023-06-04T02:41:28;10.70;1.00
20231;DHT22;10274;49.022;9.338;2023-06-04T02:43:54;11.00;99.90
20231;DHT22;10274;49.022;9.338;2023-06-04T02:46:22;11.00;99.90
20231;DHT22;10274;49.022;9.338;2023-06-04T02:48:49;11.10;99.90
20231;DHT22;10274;49.022;9.338;2023-06-04T02:51:16;11.10;1.00
20231;DHT22;10274;49.022;9.338;2023-06-04T02:53:42;11.00;1.00
20231;DHT22;10274;49.022;9.338;2023-06-04T02:56:10;11.10;1.00
20231;DHT22;10274;49.022;9.338;2023-06-04T02:58:37;10.60;1.00
20231;DHT22;10274;49.022;9.338;2023-06-04T03:01:05;10.60;1.00
20231;DHT22;10274;49.022;9.338;2023-06-04T03:03:34;10.30;1.00
20231;DHT22;10274;49.022;9.338;2023-06-04T03:06:00;10.60;1.00
20231;DHT22;10274;49.022;9.338;2023-06-04T03:08:27;10.50;1.00
20231;DHT22;10274;49.022;9.338;2023-06-04T03:10:54;10.60;1.00
20231;DHT22;10274;49.022;9.338;2023-06-04T03:13:21;10.50;1.00
20231;DHT22;10274;49.022;9.338;2023-06-04T03:15:47;10.60;1.00
20231;DHT22;10274;49.022;9.338;2023-06-04T03:18:14;10.60;1.00
20231;DHT22;10274;49.022;9.338;2023-06-04T03:20:42;10.60;1.00
20231;DHT22;10274;49.022;9.338;2023-06-04T03:23:09;10.60;1.00
20231;DHT22;10274;49.022;9.338;2023-06-04T03:25:36;10.60;1.00
20231;DHT22;10274;49.022;9.338;2023-06-04T03:28:02;10.70;1.00
20231;DHT22;10274;49.022;9.338;2023-06-04T03:30:29;10.70;99.90
20231;DHT22;10274;49.022;9.338;2023-06-04T03:32:56;10.50;1.00
20231;DHT22;10274;49.022;9.338;2023-06-04T03:35:22;10.60;1.00
20231;DHT22;10274;49.022;9.338;2023-06-04T03:37:50;10.60;1.00
20231;DHT22;10274;49.022;9.338;2023-06-04T03:40:17;10.60;1.00
20231;DHT22;10274;49.022;9.338;2023-06-04T03:42:43;10.40;1.00
20231;DHT22;10274;49.022;9.338;2023-06-04T03:45:10;10.40;1.00
20231;DHT22;10274;49.022;9.338;2023-06-04T03:47:38;10.40;1.00
20231;DHT22;10274;49.022;9.338;2023-06-04T03:50:05;10.20;1.00
20231;DHT22;10274;49.022;9.338;2023-06-04T03:52:32;10.00;1.00
20231;DHT22;10274;49.022;9.338;2023-06-04T03:55:00;10.30;1.00
20231;DHT22;10274;49.022;9.338;2023-06-04T03:57:27;10.30;1.00
20231;DHT22;10274;49.022;9.338;2023-06-04T04:02:20;10.50;1.00
20231;DHT22;10274;49.022;9.338;2023-06-04T04:04:47;10.60;1.00
20231;DHT22;10274;49.022;9.338;2023-06-04T04:07:15;10.60;1.00
20231;DHT22;10274;49.022;9.338;2023-06-04T04:09:42;10.70;1.00
20231;DHT22;10274;49.022;9.338;2023-06-04T04:12:10;10.80;1.00
20231;DHT22;10274;49.022;9.338;2023-06-04T04:14:36;10.80;99.90
20231;DHT22;10274;49.022;9.338;2023-06-04T04:17:03;10.90;99.90
20231;DHT22;10274;49.022;9.338;2023-06-04T04:19:30;10.90;1.00
20231;DHT22;10274;49.022;9.338;2023-06-04T04:21:57;11.00;1.00
20231;DHT22;10274;49.022;9.338;2023-06-04T04:24:24;10.90;1.00
20231;DHT22;10274;49.022;9.338;2023-06-04T04:26:51;10.80;1.00
20231;DHT22;10274;49.022;9.338;2023-06-04T04:29:20;10.90;1.00
20231;DHT22;10274;49.022;9.338;2023-06-04T04:31:50;10.90;1.00
20231;DHT22;10274;49.022;9.338;2023-06-04T04:34:17;10.90;1.00
20231;DHT22;10274;49.022;9.338;2023-06-04T04:36:46;11.00;1.00
20231;DHT22;10274;49.022;9.338;2023-06-04T04:39:17;11.10;1.00
20231;DHT22;10274;49.022;9.338;2023-06-04T04:41:44;11.20;1.00
20231;DHT22;10274;49.022;9.338;2023-06-04T04:44:11;11.30;1.00
20231;DHT22;10274;49.022;9.338;2023-06-04T04:46:39;11.30;1.00
20231;DHT22;10274;49.022;9.338;2023-06-04T04:49:05;11.40;1.00
20231;DHT22;10274;49.022;9.338;2023-06-04T04:51:32;11.40;1.00
20231;DHT22;10274;49.022;9.338;2023-06-04T04:53:59;11.50;1.00
20231;DHT22;10274;49.022;9.338;2023-06-04T04:56:26;11.60;1.00
20231;DHT22;10274;49.022;9.338;2023-06-04T04:58:53;11.70;99.90
20231;DHT22;10274;49.022;9.338;2023-06-04T05:01:20;11.80;99.90
20231;DHT22;10274;49.022;9.338;2023-06-04T05:03:50;11.80;99.90
20231;DHT22;10274;49.022;9.338;2023-06-04T05:06:17;11.90;1.00
20231;DHT22;10274;49.022;9.338;2023-06-04T05:08:44;11.80;1.00
20231;DHT22;10274;49.022;9.338;2023-06-04T05:11:11;11.80;1.00
20231;DHT22;10274;49.022;9.338;2023-06-04T05:13:37;11.80;1.00
20231;DHT22;10274;49.022;9.338;2023-06-04T05:16:06;11.80;1.00
20231;DHT22;10274;49.022;9.338;2023-06-04T05:18:32;11.80;1.00
20231;DHT22;10274;49.022;9.338;2023-06-04T05:21:01;11.90;1.00
20231;DHT22;10274;49.022;9.338;2023-06-04T05:23:28;12.10;1.00
20231;DHT22;10274;49.022;9.338;2023-06-04T05:25:55;12.20;1.00
20231;DHT22;10274;49.022;9.338;2023-06-04T05:28:22;12.40;99.90
20231;DHT22;10274;49.022;9.338;2023-06-04T05:30:50;12.50;99.90
20231;DHT22;10274;49.022;9.338;2023-06-04T05:33:17;12.50;99.90
20231;DHT22;10274;49.022;9.338;2023-06-04T05:35:45;12.60;99.90
20231;DHT22;10274;49.022;9.338;2023-06-04T05:38:15;12.60;1.00
20231;DHT22;10274;49.022;9.338;2023-06-04T05:40:44;12.70;1.00
20231;DHT22;10274;49.022;9.338;2023-06-04T05:43:11;12.70;1.00
20231;DHT22;10274;49.022;9.338;2023-06-04T05:45:38;12.80;33.90
20231;DHT22;10274;49.022;9.338;2023-06-04T05:48:05;12.80;99.90
20231;DHT22;10274;49.022;9.338;2023-06-04T05:50:32;12.90;1.00
20231;DHT22;10274;49.022;9.338;2023-06-04T05:52:59;13.00;1.00
20231;DHT22;10274;49.022;9.338;2023-06-04T05:55:27;13.20;1.00
20231;DHT22;10274;49.022;9.338;2023-06-04T05:57:54;13.40;99.90
20231;DHT22;10274;49.022;9.338;2023-06-04T06:00:21;13.40;1.00
20231;DHT22;10274;49.022;9.338;2023-06-04T06:02:49;13.50;1.00
20231;DHT22;10274;49.022;9.338;2023-06-04T06:05:17;13.60;1.00
20231;DHT22;10274;49.022;9.338;2023-06-04T06:07:44;13.80;99.90
20231;DHT22;10274;49.022;9.338;2023-06-04T06:10:11;13.80;1.00
20231;DHT22;10274;49.022;9.338;2023-06-04T06:12:39;14.00;99.90
20231;DHT22;10274;49.022;9.338;2023-06-04T06:15:06;14.20;99.90
20231;DHT22;10274;49.022;9.338;2023-06-04T06:17:33;14.30;1.00
20231;DHT22;10274;49.022;9.338;2023-06-04T06:20:00;14.40;1.00
20231;DHT22;10274;49.022;9.338;2023-06-04T06:22:31;14.50;99.90
20231;DHT22;10274;49.022;9.338;2023-06-04T06:24:58;14.80;99.90
20231;DHT22;10274;49.022;9.338;2023-06-04T06:27:25;14.90;1.00
20231;DHT22;10274;49.022;9.338;2023-06-04T06:29:53;15.10;1.00
20231;DHT22;10274;49.022;9.338;2023-06-04T06:32:21;15.40;1.00
20231;DHT22;10274;49.022;9.338;2023-06-04T06:34:47;15.70;1.00
20231;DHT22;10274;49.022;9.338;2023-06-04T06:37:14;15.80;1.00
20231;DHT22;10274;49.022;9.338;2023-06-04T06:39:41;16.00;1.00
20231;DHT22;10274;49.022;9.338;2023-06-04T06:42:07;16.00;99.90
20231;DHT22;10274;49.022;9.338;2023-06-04T06:44:34;16.20;1.00
20231;DHT22;10274;49.022;9.338;2023-06-04T06:47:03;16.50;75.40
20231;DHT22;10274;49.022;9.338;2023-06-04T06:49:29;16.60;1.00
20231;DHT22;10274;49.022;9.338;2023-06-04T06:51:56;16.70;1.00
20231;DHT22;10274;49.022;9.338;2023-06-04T06:54:23;16.80;1.00
20231;DHT22;10274;49.022;9.338;2023-06-04T06:56:49;17.00;1.00
20231;DHT22;10274;49.022;9.338;2023-06-04T06:59:16;17.10;1.00
20231;DHT22;10274;49.022;9.338;2023-06-04T07:01:43;17.10;99.90
20231;DHT22;10274;49.022;9.338;2023-06-04T07:04:11;17.40;99.90
20231;DHT22;10274;49.022;9.338;2023-06-04T07:06:38;17.70;1.00
20231;DHT22;10274;49.022;9.338;2023-06-04T07:09:05;17.60;99.90
20231;DHT22;10274;49.022;9.338;2023-06-04T07:11:32;17.90;99.90
20231;DHT22;10274;49.022;9.338;2023-06-04T07:13:59;18.00;99.90
20231;DHT22;10274;49.022;9.338;2023-06-04T07:16:27;18.10;10.80
20231;DHT22;10274;49.022;9.338;2023-06-04T07:18:54;18.20;1.00
20231;DHT22;10274;49.022;9.338;2023-06-04T07:21:22;18.10;1.00
20231;DHT22;10274;49.022;9.338;2023-06-04T07:23:49;18.40;1.00
20231;DHT22;10274;49.022;9.338;2023-06-04T07:26:16;18.70;1.00
20231;DHT22;10274;49.022;9.338;2023-06-04T07:28:43;18.90;1.00
20231;DHT22;10274;49.022;9.338;2023-06-04T07:31:10;19.00;1.00
20231;DHT22;10274;49.022;9.338;2023-06-04T07:33:37;19.30;1.00
20231;DHT22;10274;49.022;9.338;2023-06-04T07:36:09;19.40;1.00
20231;DHT22;10274;49.022;9.338;2023-06-04T07:38:37;19.50;1.00
20231;DHT22;10274;49.022;9.338;2023-06-04T07:41:03;19.80;1.00
20231;DHT22;10274;49.022;9.338;2023-06-04T07:43:30;19.80;1.00
20231;DHT22;10274;49.022;9.338;2023-06-04T07:45:57;19.90;1.00
20231;DHT22;10274;49.022;9.338;2023-06-04T07:48:24;20.00;1.00
20231;DHT22;10274;49.022;9.338;2023-06-04T07:50:56;20.20;1.00
20231;DHT22;10274;49.022;9.338;2023-06-04T07:53:22;20.70;1.00
20231;DHT22;10274;49.022;9.338;2023-06-04T07:55:51;21.10;1.00
20231;DHT22;10274;49.022;9.338;2023-06-04T07:58:17;21.40;1.00
20231;DHT22;10274;49.022;9.338;2023-06-04T08:00:44;21.60;1.00
20231;DHT22;10274;49.022;9.338;2023-06-04T08:03:11;21.90;1.00
20231;DHT22;10274;49.022;9.338;2023-06-04T08:05:37;22.20;1.00
20231;DHT22;10274;49.022;9.338;2023-06-04T08:08:04;22.60;1.00
20231;DHT22;10274;49.022;9.338;2023-06-04T08:10:31;23.90;1.00
20231;DHT22;10274;49.022;9.338;2023-06-04T08:12:59;24.00;99.90
20231;DHT22;10274;49.022;9.338;2023-06-04T08:15:26;24.60;99.90
20231;DHT22;10274;49.022;9.338;2023-06-04T08:17:52;25.00;99.90
20231;DHT22;10274;49.022;9.338;2023-06-04T08:20:19;25.30;99.90
20231;DHT22;10274;49.022;9.338;2023-06-04T08:22:46;25.70;99.90
20231;DHT22;10274;49.022;9.338;2023-06-04T08:25:13;25.70;99.90
20231;DHT22;10274;49.022;9.338;2023-06-04T08:27:41;25.80;99.90
20231;DHT22;10274;49.022;9.338;2023-06-04T08:30:10;26.00;99.90
20231;DHT22;10274;49.022;9.338;2023-06-04T08:32:36;26.40;99.90
20231;DHT22;10274;49.022;9.338;2023-06-04T08:35:04;26.10;99.90
20231;DHT22;10274;49.022;9.338;2023-06-04T08:39:58;26.60;99.90
20231;DHT22;10274;49.022;9.338;2023-06-04T08:42:29;26.70;99.90
20231;DHT22;10274;49.022;9.338;2023-06-04T08:44:57;27.50;99.90
20231;DHT22;10274;49.022;9.338;2023-06-04T08:47:25;27.20;96.20
20231;DHT22;10274;49.022;9.338;2023-06-04T08:49:52;28.00;97.90
20231;DHT22;10274;49.022;9.338;2023-06-04T08:52:21;27.70;46.00
20231;DHT22;10274;49.022;9.338;2023-06-04T08:54:50;28.20;44.20
20231;DHT22;10274;49.022;9.338;2023-06-04T08:57:18;28.70;36.40
20231;DHT22;10274;49.022;9.338;2023-06-04T08:59:45;28.30;15.30
20231;DHT22;10274;49.022;9.338;2023-06-04T09:02:12;28.40;9.40
20231;DHT22;10274;49.022;9.338;2023-06-04T09:04:40;28.80;12.90
20231;DHT22;10274;49.022;9.338;2023-06-04T09:07:08;28.40;4.80
20231;DHT22;10274;49.022;9.338;2023-06-04T09:09:38;28.30;1.00
20231;DHT22;10274;49.022;9.338;2023-06-04T09:12:08;28.80;1.00
20231;DHT22;10274;49.022;9.338;2023-06-04T09:14:36;28.50;1.00
20231;DHT22;10274;49.022;9.338;2023-06-04T09:17:03;28.70;1.00
20231;DHT22;10274;49.022;9.338;2023-06-04T09:19:30;28.30;10.10
20231;DHT22;10274;49.022;9.338;2023-06-04T09:22:00;28.80;1.00
20231;DHT22;10274;49.022;9.338;2023-06-04T09:24:38;29.20;1.00
20231;DHT22;10274;49.022;9.338;2023-06-04T09:27:09;29.00;1.00
20231;DHT22;10274;49.022;9.338;2023-06-04T09:29:36;28.90;1.00
20231;DHT22;10274;49.022;9.338;2023-06-04T09:32:03;28.80;1.00
20231;DHT22;10274;49.022;9.338;2023-06-04T09:34:30;29.00;1.00
20231;DHT22;10274;49.022;9.338;2023-06-04T09:36:58;28.80;1.00
20231;DHT22;10274;49.022;9.338;2023-06-04T09:39:25;28.80;1.00
20231;DHT22;10274;49.022;9.338;2023-06-04T09:41:58;29.60;1.00
20231;DHT22;10274;49.022;9.338;2023-06-04T09:44:26;29.20;1.00
20231;DHT22;10274;49.022;9.338;2023-06-04T09:46:56;29.10;1.00
20231;DHT22;10274;49.022;9.338;2023-06-04T09:49:22;28.80;1.00
20231;DHT22;10274;49.022;9.338;2023-06-04T09:51:49;28.20;1.00
20231;DHT22;10274;49.022;9.338;2023-06-04T09:54:18;28.40;1.00
20231;DHT22;10274;49.022;9.338;2023-06-04T09:56:44;28.00;1.00
20231;DHT22;10274;49.022;9.338;2023-06-04T09:59:13;28.30;1.00
20231;DHT22;10274;49.022;9.338;2023-06-04T10:01:40;29.20;1.00
20231;DHT22;10274;49.022;9.338;2023-06-04T10:04:09;29.10;1.00
20231;DHT22;10274;49.022;9.338;2023-06-04T10:06:38;29.80;1.00
20231;DHT22;10274;49.022;9.338;2023-06-04T10:09:06;29.90;1.00
20231;DHT22;10274;49.022;9.338;2023-06-04T10:11:38;29.70;1.00
20231;DHT22;10274;49.022;9.338;2023-06-04T10:14:10;29.60;1.00
20231;DHT22;10274;49.022;9.338;2023-06-04T10:16:40;29.80;1.00
20231;DHT22;10274;49.022;9.338;2023-06-04T10:19:08;29.60;1.00
20231;DHT22;10274;49.022;9.338;2023-06-04T10:21:35;30.00;1.00
20231;DHT22;10274;49.022;9.338;2023-06-04T10:26:32;30.50;1.00
20231;DHT22;10274;49.022;9.338;2023-06-04T10:29:01;29.70;1.00
20231;DHT22;10274;49.022;9.338;2023-06-04T10:31:28;30.30;1.00
20231;DHT22;10274;49.022;9.338;2023-06-04T10:33:55;30.00;1.00
20231;DHT22;10274;49.022;9.338;2023-06-04T10:36:23;30.00;1.00
20231;DHT22;10274;49.022;9.338;2023-06-04T10:38:52;30.40;1.00
20231;DHT22;10274;49.022;9.338;2023-06-04T10:41:19;29.90;1.00
20231;DHT22;10274;49.022;9.338;2023-06-04T10:43:48;29.70;1.00
20231;DHT22;10274;49.022;9.338;2023-06-04T10:46:18;30.30;1.00
20231;DHT22;10274;49.022;9.338;2023-06-04T10:48:49;30.40;1.00
20231;DHT22;10274;49.022;9.338;2023-06-04T10:51:16;30.60;1.00
20231;DHT22;10274;49.022;9.338;2023-06-04T10:53:43;30.10;1.00
20231;DHT22;10274;49.022;9.338;2023-06-04T10:56:10;29.00;1.00
20231;DHT22;10274;49.022;9.338;2023-06-04T10:58:37;29.30;1.00
20231;DHT22;10274;49.022;9.338;2023-06-04T11:01:04;30.00;1.00
20231;DHT22;10274;49.022;9.338;2023-06-04T11:03:38;30.00;1.00
20231;DHT22;10274;49.022;9.338;2023-06-04T11:06:15;29.70;1.00
20231;DHT22;10274;49.022;9.338;2023-06-04T11:08:42;30.50;1.00
20231;DHT22;10274;49.022;9.338;2023-06-04T11:11:12;29.90;1.00
20231;DHT22;10274;49.022;9.338;2023-06-04T11:13:40;30.20;1.00
20231;DHT22;10274;49.022;9.338;2023-06-04T11:16:14;30.00;1.00
20231;DHT22;10274;49.022;9.338;2023-06-04T11:18:43;30.00;1.00
20231;DHT22;10274;49.022;9.338;2023-06-04T11:21:11;29.70;1.00
20231;DHT22;10274;49.022;9.338;2023-06-04T11:23:40;30.10;1.00
20231;DHT22;10274;49.022;9.338;2023-06-04T11:26:06;30.20;1.00
20231;DHT22;10274;49.022;9.338;2023-06-04T11:28:33;30.40;1.00
20231;DHT22;10274;49.022;9.338;2023-06-04T11:31:01;30.30;1.00
20231;DHT22;10274;49.022;9.338;2023-06-04T11:33:28;30.10;1.00
20231;DHT22;10274;49.022;9.338;2023-06-04T11:35:57;30.00;1.00
20231;DHT22;10274;49.022;9.338;2023-06-04T11:38:23;29.80;1.00
20231;DHT22;10274;49.022;9.338;2023-06-04T11:40:58;29.30;1.00
20231;DHT22;10274;49.022;9.338;2023-06-04T11:43:26;29.80;1.00
20231;DHT22;10274;49.022;9.338;2023-06-04T11:45:53;29.50;1.00
20231;DHT22;10274;49.022;9.338;2023-06-04T11:48:20;29.30;1.00
20231;DHT22;10274;49.022;9.338;2023-06-04T11:50:47;29.70;1.00
20231;DHT22;10274;49.022;9.338;2023-06-04T11:53:15;30.00;1.00
20231;DHT22;10274;49.022;9.338;2023-06-04T11:55:42;29.50;1.00
20231;DHT22;10274;49.022;9.338;2023-06-04T11:58:09;29.30;1.00
20231;DHT22;10274;49.022;9.338;2023-06-04T12:00:36;29.70;1.00
20231;DHT22;10274;49.022;9.338;2023-06-04T12:03:03;29.50;1.00
20231;DHT22;10274;49.022;9.338;2023-06-04T12:05:31;29.20;1.00
20231;DHT22;10274;49.022;9.338;2023-06-04T12:08:05;29.40;1.00
20231;DHT22;10274;49.022;9.338;2023-06-04T12:10:38;29.00;1.00
20231;DHT22;10274;49.022;9.338;2023-06-04T12:13:05;29.20;1.00
20231;DHT22;10274;49.022;9.338;2023-06-04T12:15:32;29.10;1.00
20231;DHT22;10274;49.022;9.338;2023-06-04T12:17:58;29.00;1.00
20231;DHT22;10274;49.022;9.338;2023-06-04T12:20:35;29.00;1.00
20231;DHT22;10274;49.022;9.338;2023-06-04T12:23:02;29.20;1.00
20231;DHT22;10274;49.022;9.338;2023-06-04T12:25:29;29.20;1.00
20231;DHT22;10274;49.022;9.338;2023-06-04T12:27:58;29.20;1.00
20231;DHT22;10274;49.022;9.338;2023-06-04T12:30:35;29.30;1.00
20231;DHT22;10274;49.022;9.338;2023-06-04T12:33:02;29.50;1.00
20231;DHT22;10274;49.022;9.338;2023-06-04T12:35:28;28.90;1.00
20231;DHT22;10274;49.022;9.338;2023-06-04T12:37:55;29.10;1.00
20231;DHT22;10274;49.022;9.338;2023-06-04T12:40:22;29.00;1.00
20231;DHT22;10274;49.022;9.338;2023-06-04T12:42:50;28.60;1.00
20231;DHT22;10274;49.022;9.338;2023-06-04T12:45:18;28.90;1.00
20231;DHT22;10274;49.022;9.338;2023-06-04T12:47:45;29.30;1.00
20231;DHT22;10274;49.022;9.338;2023-06-04T12:50:12;29.10;1.00
20231;DHT22;10274;49.022;9.338;2023-06-04T12:52:39;29.20;1.00
20231;DHT22;10274;49.022;9.338;2023-06-04T12:55:07;29.40;1.00
20231;DHT22;10274;49.022;9.338;2023-06-04T12:57:34;29.00;1.00
20231;DHT22;10274;49.022;9.338;2023-06-04T13:00:01;29.00;1.00
20231;DHT22;10274;49.022;9.338;2023-06-04T13:02:30;28.50;1.00
20231;DHT22;10274;49.022;9.338;2023-06-04T13:04:57;28.20;1.00
20231;DHT22;10274;49.022;9.338;2023-06-04T13:07:24;28.20;1.00
20231;DHT22;10274;49.022;9.338;2023-06-04T13:09:50;28.20;1.00
20231;DHT22;10274;49.022;9.338;2023-06-04T13:12:17;28.50;1.00
20231;DHT22;10274;49.022;9.338;2023-06-04T13:14:44;28.70;1.00
20231;DHT22;10274;49.022;9.338;2023-06-04T13:17:10;28.40;1.00
20231;DHT22;10274;49.022;9.338;2023-06-04T13:19:38;28.20;1.00
20231;DHT22;10274;49.022;9.338;2023-06-04T13:22:05;28.20;1.00
20231;DHT22;10274;49.022;9.338;2023-06-04T13:24:32;27.90;1.00
20231;DHT22;10274;49.022;9.338;2023-06-04T13:26:58;28.00;1.00
20231;DHT22;10274;49.022;9.338;2023-06-04T13:29:25;28.00;1.00
20231;DHT22;10274;49.022;9.338;2023-06-04T13:31:52;28.10;1.00
20231;DHT22;10274;49.022;9.338;2023-06-04T13:34:20;28.10;1.00
20231;DHT22;10274;49.022;9.338;2023-06-04T13:36:48;28.00;1.00
20231;DHT22;10274;49.022;9.338;2023-06-04T13:39:14;27.90;1.00
20231;DHT22;10274;49.022;9.338;2023-06-04T13:41:41;28.00;1.00
20231;DHT22;10274;49.022;9.338;2023-06-04T13:44:08;27.50;1.00
20231;DHT22;10274;49.022;9.338;2023-06-04T13:46:34;27.50;1.00
20231;DHT22;10274;49.022;9.338;2023-06-04T13:49:01;27.50;1.00
20231;DHT22;10274;49.022;9.338;2023-06-04T13:51:29;27.40;1.00
20231;DHT22;10274;49.022;9.338;2023-06-04T13:53:57;27.70;1.00
20231;DHT22;10274;49.022;9.338;2023-06-04T13:56:24;27.80;1.00
20231;DHT22;10274;49.022;9.338;2023-06-04T13:58:51;27.80;1.00
20231;DHT22;10274;49.022;9.338;2023-06-04T14:01:17;27.50;1.00
20231;DHT22;10274;49.022;9.338;2023-06-04T14:03:44;27.20;1.00
20231;DHT22;10274;49.022;9.338;2023-06-04T14:06:10;27.20;1.00
20231;DHT22;10274;49.022;9.338;2023-06-04T14:08:37;27.40;1.00
20231;DHT22;10274;49.022;9.338;2023-06-04T14:11:05;27.50;1.00
20231;DHT22;10274;49.022;9.338;2023-06-04T14:13:32;27.20;1.00
20231;DHT22;10274;49.022;9.338;2023-06-04T14:15:59;27.10;1.00
20231;DHT22;10274;49.022;9.338;2023-06-04T14:18:25;27.00;1.00
20231;DHT22;10274;49.022;9.338;2023-06-04T14:20:52;26.90;1.00
20231;DHT22;10274;49.022;9.338;2023-06-04T14:23:20;26.90;1.00
20231;DHT22;10274;49.022;9.338;2023-06-04T14:25:46;27.10;1.00
20231;DHT22;10274;49.022;9.338;2023-06-04T14:28:14;27.20;1.00
20231;DHT22;10274;49.022;9.338;2023-06-04T14:30:43;27.30;1.00
20231;DHT22;10274;49.022;9.338;2023-06-04T14:33:10;27.30;1.00
20231;DHT22;10274;49.022;9.338;2023-06-04T14:35:36;27.10;1.00
20231;DHT22;10274;49.022;9.338;2023-06-04T14:38:04;27.20;1.00
20231;DHT22;10274;49.022;9.338;2023-06-04T14:40:30;26.80;1.00
20231;DHT22;10274;49.022;9.338;2023-06-04T14:43:00;26.80;1.00
20231;DHT22;10274;49.022;9.338;2023-06-04T14:45:28;26.80;1.00
20231;DHT22;10274;49.022;9.338;2023-06-04T14:47:55;26.90;1.00
20231;DHT22;10274;49.022;9.338;2023-06-04T14:50:22;27.00;1.00
20231;DHT22;10274;49.022;9.338;2023-06-04T14:52:49;26.80;1.00
20231;DHT22;10274;49.022;9.338;2023-06-04T14:55:15;26.70;1.00
20231;DHT22;10274;49.022;9.338;2023-06-04T14:57:42;26.70;1.00
20231;DHT22;10274;49.022;9.338;2023-06-04T15:00:09;26.70;1.00
20231;DHT22;10274;49.022;9.338;2023-06-04T15:02:37;26.70;1.00
20231;DHT22;10274;49.022;9.338;2023-06-04T15:05:04;26.60;1.00
20231;DHT22;10274;49.022;9.338;2023-06-04T15:07:31;26.70;1.00
20231;DHT22;10274;49.022;9.338;2023-06-04T15:09:58;26.70;1.00
20231;DHT22;10274;49.022;9.338;2023-06-04T15:12:27;26.80;1.00
20231;DHT22;10274;49.022;9.338;2023-06-04T15:14:53;26.70;1.00
20231;DHT22;10274;49.022;9.338;2023-06-04T15:17:20;26.50;1.00
20231;DHT22;10274;49.022;9.338;2023-06-04T15:19:48;26.20;1.00
20231;DHT22;10274;49.022;9.338;2023-06-04T15:22:15;26.00;1.00
20231;DHT22;10274;49.022;9.338;2023-06-04T15:24:42;25.80;1.00
20231;DHT22;10274;49.022;9.338;2023-06-04T15:27:09;25.60;1.00
20231;DHT22;10274;49.022;9.338;2023-06-04T15:29:36;25.60;1.00
20231;DHT22;10274;49.022;9.338;2023-06-04T15:32:03;25.70;1.00
20231;DHT22;10274;49.022;9.338;2023-06-04T15:34:30;25.60;1.00
20231;DHT22;10274;49.022;9.338;2023-06-04T15:36:58;25.60;1.00
20231;DHT22;10274;49.022;9.338;2023-06-04T15:39:25;25.80;1.00
20231;DHT22;10274;49.022;9.338;2023-06-04T15:41:51;25.80;1.00
20231;DHT22;10274;49.022;9.338;2023-06-04T15:44:18;25.80;1.00
20231;DHT22;10274;49.022;9.338;2023-06-04T15:46:45;25.80;1.00
20231;DHT22;10274;49.022;9.338;2023-06-04T15:49:12;25.40;1.00
20231;DHT22;10274;49.022;9.338;2023-06-04T15:51:38;25.40;1.00